Time;durP1;ratioP1;P1;durP2;ratioP2;P2;SDS_P1;SDS_P2;PMS_P1;PMS_P2;Temp;Humidity;BMP_temperature;BMP_pressure;BME280_temperature;BME280_humidity;BME280_pressure;Samples;Min_cycle;Max_cycle;Signal;HPM_P1;HPM_P2
2022/07/26 00:02:13;;;;;;;;;;;26.40;79.30;;;;;;5090777;28;20022;-68
2022/07/26 00:04:39;;;;;;;;;;;26.10;78.60;;;;;;5084135;28;19931;-68
2022/07/26 00:07:05;;;;;;;;;;;26.30;79.20;;;;;;5076386;28;19925;-68
2022/07/26 00:09:30;;;;;;;;;;;26.10;79.00;;;;;;5072792;28;19924;-68
2022/07/26 00:11:56;;;;;;;;;;;26.30;79.30;;;;;;5082878;28;19928;-68
2022/07/26 00:14:21;;;;;;;;;;;26.10;79.20;;;;;;5093902;28;19924;-68
2022/07/26 00:16:47;;;;;;;;;;;26.40;79.30;;;;;;5088544;28;19924;-68
2022/07/26 00:19:13;;;;;;;;;;;26.50;79.60;;;;;;5093092;28;19924;-68
2022/07/26 00:21:38;;;;;;;;;;;26.30;79.40;;;;;;5086612;28;20036;-68
2022/07/26 00:24:04;;;;;;;;;;;26.10;79.30;;;;;;5094092;28;19997;-68
2022/07/26 00:26:30;;;;;;;;;;;26.30;79.30;;;;;;5089961;28;19931;-68
2022/07/26 00:28:55;;;;;;;;;;;26.00;79.30;;;;;;5074074;28;19924;-68
2022/07/26 00:31:21;;;;;;;;;;;25.90;79.20;;;;;;5084920;28;19987;-69
2022/07/26 00:33:46;;;;;;;;;;;25.90;79.30;;;;;;5073718;28;19931;-68
2022/07/26 00:36:12;;;;;;;;;;;26.40;79.50;;;;;;5073757;28;19925;-68
2022/07/26 00:38:38;;;;;;;;;;;26.00;79.40;;;;;;5084503;28;19924;-68
2022/07/26 00:41:04;;;;;;;;;;;26.20;79.40;;;;;;5109747;28;20409;-68
2022/07/26 00:43:29;;;;;;;;;;;26.10;79.60;;;;;;5074961;28;19947;-68
2022/07/26 00:45:55;;;;;;;;;;;26.10;79.50;;;;;;5077284;28;19924;-68
2022/07/26 00:48:21;;;;;;;;;;;26.10;79.70;;;;;;5079974;28;20358;-68
2022/07/26 00:50:46;;;;;;;;;;;26.20;79.70;;;;;;5077780;28;19973;-68
2022/07/26 00:53:12;;;;;;;;;;;26.20;79.70;;;;;;5088777;28;19924;-68
2022/07/26 00:55:38;;;;;;;;;;;25.80;79.40;;;;;;5089333;28;19931;-68
2022/07/26 00:58:05;;;;;;;;;;;26.40;79.80;;;;;;5078813;28;19987;-68
2022/07/26 01:00:30;;;;;;;;;;;26.20;79.80;;;;;;5078883;28;19936;-68
2022/07/26 01:02:57;;;;;;;;;;;26.20;79.80;;;;;;5078166;28;20013;-68
2022/07/26 01:05:23;;;;;;;;;;;26.00;79.70;;;;;;5096911;28;19924;-68
2022/07/26 01:07:48;;;;;;;;;;;25.90;79.40;;;;;;5097675;28;19924;-68
2022/07/26 01:10:14;;;;;;;;;;;25.80;79.40;;;;;;5082555;28;19924;-68
2022/07/26 01:12:43;;;;;;;;;;;26.20;79.80;;;;;;5085823;28;20010;-68
2022/07/26 01:15:09;;;;;;;;;;;26.00;79.90;;;;;;5096103;28;19947;-68
2022/07/26 01:17:35;;;;;;;;;;;26.00;78.90;;;;;;5096816;28;19924;-68
2022/07/26 01:20:01;;;;;;;;;;;26.00;79.10;;;;;;5079265;28;20010;-68
2022/07/26 01:22:27;;;;;;;;;;;26.20;79.90;;;;;;5125691;27;19962;-68
2022/07/26 01:24:53;;;;;;;;;;;26.00;79.70;;;;;;5095370;28;19924;-68
2022/07/26 01:27:19;;;;;;;;;;;26.20;79.60;;;;;;5083075;28;19993;-68
2022/07/26 01:29:44;;;;;;;;;;;26.10;79.40;;;;;;5084057;28;20007;-68
2022/07/26 01:32:10;;;;;;;;;;;26.20;79.90;;;;;;5076849;28;19931;-68
2022/07/26 01:34:35;;;;;;;;;;;26.00;79.70;;;;;;5077492;28;20378;-68
2022/07/26 01:37:01;;;;;;;;;;;26.30;79.90;;;;;;5105484;28;20373;-68
2022/07/26 01:39:27;;;;;;;;;;;25.90;79.50;;;;;;5097019;28;20338;-68
2022/07/26 01:41:53;;;;;;;;;;;26.00;79.80;;;;;;5086398;28;19931;-68
2022/07/26 01:44:18;;;;;;;;;;;26.00;79.90;;;;;;5077066;28;20003;-68
2022/07/26 01:46:44;;;;;;;;;;;26.30;80.10;;;;;;5078810;28;19928;-68
2022/07/26 01:49:09;;;;;;;;;;;25.90;79.90;;;;;;5075267;28;19924;-68
2022/07/26 01:51:35;;;;;;;;;;;26.00;79.80;;;;;;5078742;28;19924;-68
2022/07/26 01:54:01;;;;;;;;;;;26.10;80.00;;;;;;5080281;28;19925;-68
2022/07/26 01:56:26;;;;;;;;;;;26.00;79.80;;;;;;5092111;28;19932;-68
2022/07/26 01:58:52;;;;;;;;;;;26.20;80.00;;;;;;5085299;28;19924;-68
2022/07/26 02:01:17;;;;;;;;;;;26.00;79.90;;;;;;5096835;28;19931;-68
2022/07/26 02:03:43;;;;;;;;;;;26.20;80.00;;;;;;5090540;28;19951;-68
2022/07/26 02:06:09;;;;;;;;;;;26.10;80.00;;;;;;5095402;28;19971;-68
2022/07/26 02:08:34;;;;;;;;;;;26.10;80.00;;;;;;5097393;28;19971;-68
2022/07/26 02:11:00;;;;;;;;;;;25.90;79.80;;;;;;5096472;28;19924;-68
2022/07/26 02:13:29;;;;;;;;;;;26.00;80.20;;;;;;5089551;28;19931;-68
2022/07/26 02:15:57;;;;;;;;;;;26.10;80.30;;;;;;5096175;28;20373;-68
2022/07/26 02:18:24;;;;;;;;;;;25.90;80.20;;;;;;5096647;28;19924;-68
2022/07/26 02:20:49;;;;;;;;;;;26.10;80.40;;;;;;5088551;28;19925;-68
2022/07/26 02:23:15;;;;;;;;;;;25.90;80.20;;;;;;5094135;28;20476;-68
2022/07/26 02:25:40;;;;;;;;;;;26.10;80.00;;;;;;5090893;28;19924;-68
2022/07/26 02:28:06;;;;;;;;;;;25.70;80.00;;;;;;5096424;28;19947;-68
2022/07/26 02:30:32;;;;;;;;;;;26.00;80.20;;;;;;5096401;28;19920;-68
2022/07/26 02:32:57;;;;;;;;;;;25.90;80.20;;;;;;5094786;28;19925;-68
2022/07/26 02:35:23;;;;;;;;;;;26.20;80.30;;;;;;5087643;28;20012;-68
2022/07/26 02:37:48;;;;;;;;;;;26.40;80.60;;;;;;5085755;28;19925;-68
2022/07/26 02:40:14;;;;;;;;;;;26.10;80.30;;;;;;5075713;28;20294;-68
2022/07/26 02:42:40;;;;;;;;;;;25.90;80.30;;;;;;5074691;28;19927;-68
2022/07/26 02:45:05;;;;;;;;;;;26.10;80.40;;;;;;5077492;28;20324;-68
2022/07/26 02:47:31;;;;;;;;;;;26.00;80.10;;;;;;5092618;28;19924;-68
2022/07/26 02:49:57;;;;;;;;;;;25.80;80.30;;;;;;5095892;28;19974;-68
2022/07/26 02:52:23;;;;;;;;;;;26.00;80.60;;;;;;5096007;28;19923;-68
2022/07/26 02:54:48;;;;;;;;;;;26.00;80.30;;;;;;5093347;28;19920;-68
2022/07/26 02:57:14;;;;;;;;;;;26.00;80.30;;;;;;5087426;28;19924;-68
2022/07/26 02:59:40;;;;;;;;;;;26.00;80.60;;;;;;5095893;28;19931;-68
2022/07/26 03:02:06;;;;;;;;;;;26.10;80.70;;;;;;5094407;28;20285;-68
2022/07/26 03:04:31;;;;;;;;;;;26.00;80.80;;;;;;5095212;28;20382;-68
2022/07/26 03:06:57;;;;;;;;;;;26.20;80.60;;;;;;5087098;28;19925;-68
2022/07/26 03:09:23;;;;;;;;;;;25.70;80.40;;;;;;5095648;28;19924;-68
2022/07/26 03:11:48;;;;;;;;;;;26.00;80.70;;;;;;5085024;28;20386;-68
2022/07/26 03:14:14;;;;;;;;;;;26.10;80.90;;;;;;5075307;28;19936;-68
2022/07/26 03:16:39;;;;;;;;;;;25.80;80.60;;;;;;5085221;28;19928;-68
2022/07/26 03:19:05;;;;;;;;;;;25.70;80.70;;;;;;5089086;28;19924;-68
2022/07/26 03:21:31;;;;;;;;;;;25.70;80.50;;;;;;5094938;28;20305;-68
2022/07/26 03:23:56;;;;;;;;;;;26.00;80.90;;;;;;5095036;28;19950;-61
2022/07/26 03:26:22;;;;;;;;;;;25.70;80.70;;;;;;5095303;28;19931;-61
2022/07/26 03:28:47;;;;;;;;;;;25.70;80.80;;;;;;5081197;28;19990;-61
2022/07/26 03:31:13;;;;;;;;;;;26.00;80.90;;;;;;5107548;28;19928;-61
2022/07/26 03:33:39;;;;;;;;;;;26.00;80.80;;;;;;5075778;28;19951;-61
2022/07/26 03:36:05;;;;;;;;;;;25.90;81.00;;;;;;5074904;28;20328;-60
2022/07/26 03:38:30;;;;;;;;;;;25.80;81.00;;;;;;5093487;28;19947;-60
2022/07/26 03:40:56;;;;;;;;;;;25.80;80.90;;;;;;5075566;28;19975;-61
2022/07/26 03:43:22;;;;;;;;;;;25.80;81.20;;;;;;5074778;28;19936;-61
2022/07/26 03:45:47;;;;;;;;;;;25.80;80.80;;;;;;5083882;28;19924;-61
2022/07/26 03:48:13;;;;;;;;;;;25.80;80.90;;;;;;5094915;28;20333;-61
2022/07/26 03:50:38;;;;;;;;;;;25.70;80.70;;;;;;5076703;28;19935;-61
2022/07/26 03:53:04;;;;;;;;;;;26.00;81.10;;;;;;5074829;28;19932;-60
2022/07/26 03:58:15;;;;;;;;;;;26.10;80.20;;;;;;5074452;28;20324;-61
2022/07/26 04:00:41;;;;;;;;;;;26.00;80.90;;;;;;5078111;28;20022;-61
2022/07/26 04:03:06;;;;;;;;;;;26.00;81.10;;;;;;5074907;28;19932;-61
2022/07/26 04:05:32;;;;;;;;;;;26.00;80.90;;;;;;5106859;28;20301;-61
2022/07/26 04:07:58;;;;;;;;;;;25.90;81.00;;;;;;5075194;28;20461;-60
2022/07/26 04:10:23;;;;;;;;;;;25.90;80.90;;;;;;5079296;28;20355;-60
2022/07/26 04:12:49;;;;;;;;;;;25.70;81.00;;;;;;5077836;28;20370;-61
2022/07/26 04:15:15;;;;;;;;;;;25.70;81.50;;;;;;5074274;28;20015;-62
2022/07/26 04:17:42;;;;;;;;;;;26.10;81.40;;;;;;5074413;28;19924;-61
2022/07/26 04:20:08;;;;;;;;;;;25.90;81.40;;;;;;5082340;28;19924;-61
2022/07/26 04:22:34;;;;;;;;;;;26.00;81.10;;;;;;5083636;28;19928;-61
2022/07/26 04:24:59;;;;;;;;;;;26.00;81.50;;;;;;5073806;28;19975;-61
2022/07/26 04:27:25;;;;;;;;;;;25.90;81.20;;;;;;5108432;27;19968;-61
2022/07/26 04:29:51;;;;;;;;;;;26.00;81.30;;;;;;5072908;28;19925;-61
2022/07/26 04:32:16;;;;;;;;;;;25.70;81.10;;;;;;5095211;28;19928;-61
2022/07/26 04:34:42;;;;;;;;;;;26.00;81.00;;;;;;5094217;28;19931;-61
2022/07/26 04:37:07;;;;;;;;;;;26.00;81.20;;;;;;5080466;28;19924;-61
2022/07/26 04:39:33;;;;;;;;;;;26.10;81.40;;;;;;5074898;28;19928;-61
2022/07/26 04:41:59;;;;;;;;;;;25.90;81.20;;;;;;5075502;28;19968;-62
2022/07/26 04:44:24;;;;;;;;;;;26.00;81.30;;;;;;5086507;28;19978;-61
2022/07/26 04:46:50;;;;;;;;;;;26.00;81.30;;;;;;5076044;28;19931;-61
2022/07/26 04:49:15;;;;;;;;;;;25.80;81.30;;;;;;5073817;28;20345;-61
2022/07/26 04:51:41;;;;;;;;;;;25.90;81.10;;;;;;5073929;28;19978;-60
2022/07/26 04:54:06;;;;;;;;;;;26.00;81.40;;;;;;5082069;28;20374;-61
2022/07/26 04:56:32;;;;;;;;;;;25.90;81.20;;;;;;5078256;28;19972;-61
2022/07/26 04:58:58;;;;;;;;;;;25.70;81.10;;;;;;5073465;28;19931;-61
2022/07/26 05:01:23;;;;;;;;;;;25.90;81.10;;;;;;5055919;28;19928;-61
2022/07/26 05:03:49;;;;;;;;;;;26.00;81.10;;;;;;5071957;28;20011;-61
2022/07/26 05:06:14;;;;;;;;;;;25.90;81.10;;;;;;5093230;28;19931;-61
2022/07/26 05:08:42;;;;;;;;;;;25.90;81.10;;;;;;5093627;28;19924;-61
2022/07/26 05:11:07;;;;;;;;;;;25.90;81.10;;;;;;5080934;28;19928;-62
2022/07/26 05:13:33;;;;;;;;;;;25.90;81.20;;;;;;5073659;28;19932;-61
2022/07/26 05:15:59;;;;;;;;;;;25.80;81.10;;;;;;5082504;28;20454;-61
2022/07/26 05:18:25;;;;;;;;;;;25.90;81.10;;;;;;5093494;28;20024;-62
2022/07/26 05:20:50;;;;;;;;;;;25.80;81.10;;;;;;5092100;28;19925;-60
2022/07/26 05:23:16;;;;;;;;;;;25.90;81.20;;;;;;5109239;28;19924;-60
2022/07/26 05:25:41;;;;;;;;;;;26.00;81.30;;;;;;5091347;28;19947;-61
2022/07/26 05:28:07;;;;;;;;;;;25.90;81.30;;;;;;5073778;28;19925;-61
2022/07/26 05:30:33;;;;;;;;;;;25.70;81.00;;;;;;5074996;28;20080;-61
2022/07/26 05:32:58;;;;;;;;;;;26.10;81.40;;;;;;5076941;28;19924;-60
2022/07/26 05:35:24;;;;;;;;;;;25.80;81.10;;;;;;5080096;28;19930;-61
2022/07/26 05:37:50;;;;;;;;;;;26.10;81.30;;;;;;5095279;28;19924;-61
2022/07/26 05:40:15;;;;;;;;;;;25.90;81.10;;;;;;5095163;28;19924;-61
2022/07/26 05:42:41;;;;;;;;;;;25.80;81.00;;;;;;5097310;28;19924;-61
2022/07/26 05:45:07;;;;;;;;;;;25.90;80.70;;;;;;5084221;28;19924;-60
2022/07/26 05:47:32;;;;;;;;;;;25.90;80.50;;;;;;5093183;28;19931;-61
2022/07/26 05:49:59;;;;;;;;;;;26.00;81.10;;;;;;5081301;28;19925;-61
2022/07/26 05:52:25;;;;;;;;;;;25.90;79.80;;;;;;5076551;28;19925;-61
2022/07/26 05:54:50;;;;;;;;;;;26.10;81.10;;;;;;5076524;28;19947;-61
2022/07/26 05:57:16;;;;;;;;;;;26.10;80.80;;;;;;5077929;28;19935;-60
2022/07/26 05:59:42;;;;;;;;;;;25.70;80.70;;;;;;5081194;28;19924;-61
2022/07/26 06:02:07;;;;;;;;;;;26.00;80.80;;;;;;5089068;28;20014;-61
2022/07/26 06:04:33;;;;;;;;;;;26.00;80.80;;;;;;5096503;28;19928;-61
2022/07/26 06:06:59;;;;;;;;;;;25.80;80.70;;;;;;5096892;28;19947;-61
2022/07/26 06:09:25;;;;;;;;;;;26.00;81.00;;;;;;5090106;28;19930;-61
2022/07/26 06:11:51;;;;;;;;;;;25.80;80.90;;;;;;5091185;28;19971;-62
2022/07/26 06:14:17;;;;;;;;;;;26.20;81.20;;;;;;5096725;28;20389;-61
2022/07/26 06:16:43;;;;;;;;;;;25.90;81.10;;;;;;5096705;28;19993;-61
2022/07/26 06:19:08;;;;;;;;;;;25.90;81.10;;;;;;5086696;28;20381;-61
2022/07/26 06:21:34;;;;;;;;;;;25.80;80.90;;;;;;5088201;28;20357;-61
2022/07/26 06:23:59;;;;;;;;;;;25.80;81.00;;;;;;5096232;28;19971;-61
2022/07/26 06:26:25;;;;;;;;;;;25.90;81.00;;;;;;5096419;28;19975;-62
2022/07/26 06:28:51;;;;;;;;;;;25.90;81.00;;;;;;5096487;28;19924;-61
2022/07/26 06:31:17;;;;;;;;;;;25.80;80.90;;;;;;5086267;28;19920;-66
2022/07/26 06:33:43;;;;;;;;;;;26.00;81.40;;;;;;5094616;28;19931;-61
2022/07/26 06:36:08;;;;;;;;;;;25.80;81.40;;;;;;5082770;28;19924;-61
2022/07/26 06:38:34;;;;;;;;;;;25.70;80.60;;;;;;5075687;28;19920;-61
2022/07/26 06:40:59;;;;;;;;;;;25.70;80.80;;;;;;5077510;28;19932;-64
2022/07/26 06:43:25;;;;;;;;;;;25.60;80.70;;;;;;5083559;28;19928;-62
2022/07/26 06:45:51;;;;;;;;;;;25.70;80.80;;;;;;5075512;28;19978;-61
2022/07/26 06:48:17;;;;;;;;;;;25.70;80.30;;;;;;5075856;28;19935;-61
2022/07/26 06:50:42;;;;;;;;;;;26.00;80.80;;;;;;5075336;28;20338;-62
2022/07/26 06:53:08;;;;;;;;;;;25.80;81.00;;;;;;5086993;28;20007;-61
2022/07/26 06:55:33;;;;;;;;;;;26.10;81.10;;;;;;5076064;28;20392;-61
2022/07/26 06:57:59;;;;;;;;;;;26.00;81.40;;;;;;5075673;28;20439;-61
2022/07/26 07:00:25;;;;;;;;;;;25.90;80.90;;;;;;5087821;28;19924;-62
2022/07/26 07:02:50;;;;;;;;;;;26.10;80.80;;;;;;5089379;28;20011;-62
2022/07/26 07:05:16;;;;;;;;;;;25.90;80.90;;;;;;5089676;28;20018;-61
2022/07/26 07:07:42;;;;;;;;;;;26.20;81.00;;;;;;5095742;28;19931;-61
2022/07/26 07:10:07;;;;;;;;;;;25.90;80.60;;;;;;5082776;28;20366;-62
2022/07/26 07:12:33;;;;;;;;;;;26.10;80.60;;;;;;5075184;28;19928;-62
2022/07/26 07:14:59;;;;;;;;;;;26.20;80.90;;;;;;5088647;28;19935;-66
2022/07/26 07:17:25;;;;;;;;;;;26.40;80.70;;;;;;5093681;28;19932;-65
2022/07/26 07:19:50;;;;;;;;;;;26.10;80.70;;;;;;5092558;28;20025;-63
2022/07/26 07:22:16;;;;;;;;;;;26.40;80.50;;;;;;5094372;28;19932;-63
2022/07/26 07:24:41;;;;;;;;;;;26.60;80.60;;;;;;5087978;28;19927;-62
2022/07/26 07:27:07;;;;;;;;;;;26.30;80.30;;;;;;5089522;28;19930;-62
2022/07/26 07:29:33;;;;;;;;;;;26.40;80.10;;;;;;5095856;28;19934;-61
2022/07/26 07:31:58;;;;;;;;;;;26.50;80.10;;;;;;5095661;28;19924;-62
2022/07/26 07:34:25;;;;;;;;;;;26.70;80.10;;;;;;5090703;28;20393;-62
2022/07/26 07:36:51;;;;;;;;;;;26.80;79.50;;;;;;5081026;28;20463;-61
2022/07/26 07:39:17;;;;;;;;;;;26.80;80.10;;;;;;5089902;28;19932;-61
2022/07/26 07:41:43;;;;;;;;;;;26.50;79.40;;;;;;5094928;28;20017;-65
2022/07/26 07:44:08;;;;;;;;;;;26.80;79.90;;;;;;5081767;28;20401;-65
2022/07/26 07:46:34;;;;;;;;;;;26.80;79.50;;;;;;5077448;28;19924;-62
2022/07/26 07:49:00;;;;;;;;;;;26.80;79.40;;;;;;5081483;28;19924;-62
2022/07/26 07:51:25;;;;;;;;;;;26.80;78.90;;;;;;5094885;28;20300;-62
2022/07/26 07:53:51;;;;;;;;;;;26.90;79.10;;;;;;5094712;28;20377;-62
2022/07/26 07:56:16;;;;;;;;;;;27.00;78.70;;;;;;5094778;28;19924;-62
2022/07/26 07:58:42;;;;;;;;;;;27.20;78.50;;;;;;5090752;28;20385;-62
2022/07/26 08:01:08;;;;;;;;;;;27.00;78.90;;;;;;5096577;28;20007;-68
2022/07/26 08:03:33;;;;;;;;;;;27.20;79.60;;;;;;5074110;28;20011;-62
2022/07/26 08:05:59;;;;;;;;;;;27.00;79.50;;;;;;5072775;28;20404;-62
2022/07/26 08:08:25;;;;;;;;;;;26.90;79.70;;;;;;5087334;28;19924;-62
2022/07/26 08:10:50;;;;;;;;;;;26.70;80.20;;;;;;5083060;28;19928;-62
2022/07/26 08:13:16;;;;;;;;;;;26.80;79.80;;;;;;5074019;28;19928;-62
2022/07/26 08:15:42;;;;;;;;;;;26.50;78.90;;;;;;5073956;28;19924;-61
2022/07/26 08:18:07;;;;;;;;;;;26.40;78.70;;;;;;5085332;28;19920;-61
2022/07/26 08:20:33;;;;;;;;;;;26.60;77.90;;;;;;5090943;28;19928;-62
2022/07/26 08:22:59;;;;;;;;;;;26.60;77.60;;;;;;5106489;28;20336;-62
2022/07/26 08:25:24;;;;;;;;;;;26.80;77.50;;;;;;5074085;28;19924;-62
2022/07/26 08:27:50;;;;;;;;;;;26.70;77.60;;;;;;5106477;28;19925;-62
2022/07/26 08:30:15;;;;;;;;;;;26.70;77.90;;;;;;5074098;28;19924;-62
2022/07/26 08:32:41;;;;;;;;;;;26.60;77.80;;;;;;5076115;28;19925;-61
2022/07/26 08:35:07;;;;;;;;;;;26.50;78.00;;;;;;5086450;28;19924;-62
2022/07/26 08:37:33;;;;;;;;;;;26.70;78.60;;;;;;5093980;28;20049;-61
2022/07/26 08:39:58;;;;;;;;;;;26.60;78.80;;;;;;5080916;28;19932;-71
2022/07/26 08:42:24;;;;;;;;;;;26.60;79.00;;;;;;5108890;28;19924;-64
2022/07/26 08:44:50;;;;;;;;;;;26.50;78.60;;;;;;5092528;28;20023;-69
2022/07/26 08:47:17;;;;;;;;;;;26.80;78.50;;;;;;5091576;28;20019;-68
2022/07/26 08:49:42;;;;;;;;;;;26.70;78.90;;;;;;5093689;28;19930;-61
2022/07/26 08:52:08;;;;;;;;;;;26.80;79.00;;;;;;5088393;28;19924;-64
2022/07/26 08:54:34;;;;;;;;;;;26.50;78.80;;;;;;5092059;28;20381;-63
2022/07/26 08:57:00;;;;;;;;;;;26.50;79.10;;;;;;5091677;28;19928;-62
2022/07/26 08:59:25;;;;;;;;;;;26.80;78.90;;;;;;5085175;28;19924;-64
2022/07/26 09:01:56;;;;;;;;;;;26.70;79.00;;;;;;5076016;28;20073;-62
2022/07/26 09:04:22;;;;;;;;;;;26.60;78.90;;;;;;5093600;28;19967;-64
2022/07/26 09:06:58;;;;;;;;;;;26.70;79.20;;;;;;5112830;28;19931;-62
2022/07/26 09:09:24;;;;;;;;;;;26.60;77.60;;;;;;5089382;28;19992;-62
2022/07/26 09:11:50;;;;;;;;;;;26.70;78.20;;;;;;5095431;28;19957;-62
2022/07/26 09:14:16;;;;;;;;;;;26.80;77.80;;;;;;5096893;28;20023;-62
2022/07/26 09:16:41;;;;;;;;;;;27.00;78.00;;;;;;5081306;28;20364;-62
2022/07/26 09:19:17;;;;;;;;;;;27.00;78.10;;;;;;5094627;28;19951;-63
2022/07/26 09:21:43;;;;;;;;;;;26.70;77.90;;;;;;5124378;27;19986;-64
2022/07/26 09:24:09;;;;;;;;;;;26.80;77.60;;;;;;5082464;28;20342;-66
2022/07/26 09:26:35;;;;;;;;;;;26.70;77.60;;;;;;5106414;28;19930;-66
2022/07/26 09:29:01;;;;;;;;;;;26.80;77.30;;;;;;5104528;28;20391;-63
2022/07/26 09:31:27;;;;;;;;;;;26.80;77.70;;;;;;5107050;28;20463;-62
2022/07/26 09:33:53;;;;;;;;;;;26.70;77.20;;;;;;5117956;28;20036;-61
2022/07/26 09:36:18;;;;;;;;;;;26.70;77.10;;;;;;5101757;28;19977;-67
2022/07/26 09:38:45;;;;;;;;;;;26.60;76.90;;;;;;5115933;28;20312;-66
2022/07/26 09:41:20;;;;;;;;;;;26.70;77.00;;;;;;5083084;28;19924;-68
2022/07/26 09:43:46;;;;;;;;;;;26.80;74.80;;;;;;5094534;28;20267;-62
2022/07/26 09:46:12;;;;;;;;;;;26.80;75.50;;;;;;5096873;28;19939;-68
2022/07/26 09:48:38;;;;;;;;;;;26.50;75.10;;;;;;5103784;28;19984;-66
2022/07/26 09:51:07;;;;;;;;;;;26.40;75.10;;;;;;5092575;28;19936;-62
2022/07/26 09:53:53;;;;;;;;;;;26.30;74.10;;;;;;5095681;28;19993;-62
2022/07/26 09:56:18;;;;;;;;;;;26.40;75.10;;;;;;5116874;28;19924;-62
2022/07/26 09:58:44;;;;;;;;;;;26.20;75.60;;;;;;5078979;28;19932;-62
2022/07/26 10:01:10;;;;;;;;;;;26.30;75.50;;;;;;5077784;28;20279;-61
2022/07/26 10:03:35;;;;;;;;;;;26.30;75.60;;;;;;5107540;28;20381;-62
2022/07/26 10:06:01;;;;;;;;;;;26.40;75.30;;;;;;5115185;28;19931;-62
2022/07/26 10:08:27;;;;;;;;;;;26.00;75.60;;;;;;5109412;28;19931;-62
2022/07/26 10:11:05;;;;;;;;;;;26.20;75.60;;;;;;5110396;28;20115;-62
2022/07/26 10:13:31;;;;;;;;;;;26.30;74.50;;;;;;5127709;27;20263;-62
2022/07/26 10:15:57;;;;;;;;;;;26.10;75.20;;;;;;5107422;27;19939;-63
2022/07/26 10:18:35;;;;;;;;;;;26.40;75.80;;;;;;5087433;28;19931;-69
2022/07/26 10:21:20;;;;;;;;;;;25.70;74.10;;;;;;5118701;27;19924;-67
2022/07/26 10:23:58;;;;;;;;;;;26.20;74.40;;;;;;5098744;28;19924;-62
2022/07/26 10:26:33;;;;;;;;;;;26.60;76.50;;;;;;5103742;28;19932;-67
2022/07/26 10:29:18;;;;;;;;;;;26.20;75.00;;;;;;5095778;28;19927;-62
2022/07/26 10:31:43;;;;;;;;;;;26.20;75.20;;;;;;5111179;28;20022;-62
2022/07/26 10:34:09;;;;;;;;;;;26.30;76.40;;;;;;5089014;28;19997;-64
2022/07/26 10:36:35;;;;;;;;;;;26.20;76.20;;;;;;5081854;28;19939;-62
2022/07/26 10:39:05;;;;;;;;;;;25.90;76.30;;;;;;5093569;28;19924;-63
2022/07/26 10:41:34;;;;;;;;;;;26.20;76.70;;;;;;5095787;28;19920;-61
2022/07/26 10:44:26;;;;;;;;;;;26.10;75.40;;;;;;5109060;28;19934;-62
2022/07/26 10:47:00;;;;;;;;;;;26.30;75.50;;;;;;5092196;28;20389;-62
2022/07/26 10:49:39;;;;;;;;;;;26.20;75.40;;;;;;5112747;28;19977;-63
2022/07/26 10:52:05;;;;;;;;;;;26.30;75.50;;;;;;5100502;28;20323;-62
2022/07/26 10:54:30;;;;;;;;;;;26.20;76.20;;;;;;5116315;28;19923;-62
2022/07/26 10:56:56;;;;;;;;;;;26.30;76.00;;;;;;5107179;28;19923;-68
2022/07/26 10:59:40;;;;;;;;;;;26.40;76.10;;;;;;5084806;28;20373;-66
2022/07/26 11:02:14;;;;;;;;;;;26.30;74.70;;;;;;5085541;28;19931;-61
2022/07/26 11:04:40;;;;;;;;;;;26.40;76.30;;;;;;5090709;28;20354;-62
2022/07/26 11:07:06;;;;;;;;;;;26.50;75.80;;;;;;5096396;28;19975;-62
2022/07/26 11:09:34;;;;;;;;;;;26.10;75.60;;;;;;5105779;28;19931;-62
2022/07/26 11:12:18;;;;;;;;;;;26.60;75.00;;;;;;5095823;28;19935;-63
2022/07/26 11:14:44;;;;;;;;;;;26.60;75.10;;;;;;5093659;28;19924;-62
2022/07/26 11:17:21;;;;;;;;;;;26.60;75.50;;;;;;5111010;28;19931;-62
2022/07/26 11:19:47;;;;;;;;;;;26.50;76.00;;;;;;5110100;28;19924;-63
2022/07/26 11:22:12;;;;;;;;;;;26.40;74.90;;;;;;5084982;28;20408;-71
2022/07/26 11:24:39;;;;;;;;;;;26.20;74.70;;;;;;5107358;28;19924;-65
2022/07/26 11:27:05;;;;;;;;;;;26.60;75.30;;;;;;5091898;28;20011;-66
2022/07/26 11:29:33;;;;;;;;;;;26.40;75.50;;;;;;5103829;28;20061;-66
2022/07/26 11:31:58;;;;;;;;;;;26.40;75.60;;;;;;5135761;27;19933;-62
2022/07/26 11:34:25;;;;;;;;;;;26.30;74.60;;;;;;5076085;28;20396;-62
2022/07/26 11:36:51;;;;;;;;;;;26.50;75.00;;;;;;5099020;28;19923;-62
2022/07/26 11:39:21;;;;;;;;;;;26.40;75.40;;;;;;5110012;28;19931;-62
2022/07/26 11:41:47;;;;;;;;;;;26.50;73.70;;;;;;5093835;28;20377;-66
2022/07/26 11:44:17;;;;;;;;;;;26.60;74.80;;;;;;5093643;28;20495;-62
2022/07/26 11:46:48;;;;;;;;;;;26.20;73.20;;;;;;5090705;28;19925;-61
2022/07/26 11:49:15;;;;;;;;;;;26.50;74.40;;;;;;5109436;28;19930;-61
2022/07/26 11:51:56;;;;;;;;;;;26.60;75.60;;;;;;5098641;28;19920;-62
2022/07/26 11:54:22;;;;;;;;;;;26.50;72.80;;;;;;5100609;28;20014;-62
2022/07/26 11:56:49;;;;;;;;;;;26.10;72.70;;;;;;5084823;28;19920;-62
2022/07/26 11:59:14;;;;;;;;;;;26.40;72.50;;;;;;5076897;28;19932;-66
2022/07/26 12:01:40;;;;;;;;;;;26.40;72.50;;;;;;5092974;28;20282;-62
2022/07/26 12:04:05;;;;;;;;;;;26.40;72.80;;;;;;5094346;28;19977;-62
2022/07/26 12:06:36;;;;;;;;;;;26.40;72.60;;;;;;5092781;28;20386;-67
2022/07/26 12:09:02;;;;;;;;;;;26.40;73.40;;;;;;5089413;28;20011;-67
2022/07/26 12:11:35;;;;;;;;;;;26.50;73.40;;;;;;5101668;28;20006;-66
2022/07/26 12:14:01;;;;;;;;;;;26.30;73.50;;;;;;5092625;28;19935;-62
2022/07/26 12:16:39;;;;;;;;;;;26.20;73.30;;;;;;5090542;28;19928;-61
2022/07/26 12:19:05;;;;;;;;;;;26.60;72.40;;;;;;5102774;28;19943;-62
2022/07/26 12:21:37;;;;;;;;;;;26.30;73.80;;;;;;5095063;28;19924;-62
2022/07/26 12:24:03;;;;;;;;;;;26.60;72.60;;;;;;5101812;28;19932;-64
2022/07/26 12:26:32;;;;;;;;;;;26.10;73.10;;;;;;5079194;28;19931;-62
2022/07/26 12:29:23;;;;;;;;;;;26.50;73.90;;;;;;5107243;28;19923;-62
2022/07/26 12:31:44;;;;;;;;;;;26.40;73.60;;;;;;5095505;28;19931;-62
2022/07/26 12:34:09;;;;;;;;;;;26.40;73.80;;;;;;5082441;28;19925;-62
2022/07/26 12:36:35;;;;;;;;;;;26.00;73.50;;;;;;5073793;28;19925;-62
2022/07/26 12:39:01;;;;;;;;;;;26.10;73.50;;;;;;5092135;28;20033;-62
2022/07/26 12:41:36;;;;;;;;;;;26.20;74.30;;;;;;5092871;28;20010;-62
2022/07/26 12:44:02;;;;;;;;;;;26.50;72.60;;;;;;5109202;28;19967;-62
2022/07/26 12:46:30;;;;;;;;;;;26.00;73.30;;;;;;5105021;28;19970;-62
2022/07/26 12:48:56;;;;;;;;;;;26.30;73.60;;;;;;5066221;28;19928;-62
2022/07/26 12:51:21;;;;;;;;;;;26.20;73.30;;;;;;5073776;28;19947;-66
2022/07/26 12:53:47;;;;;;;;;;;26.20;73.20;;;;;;5088447;28;20010;-62
2022/07/26 12:56:13;;;;;;;;;;;26.30;73.50;;;;;;5098867;28;19931;-62
2022/07/26 12:58:38;;;;;;;;;;;26.10;73.60;;;;;;5081258;28;19920;-61
2022/07/26 13:01:04;;;;;;;;;;;26.10;73.00;;;;;;5094079;28;20336;-63
2022/07/26 13:03:29;;;;;;;;;;;26.30;73.60;;;;;;5096951;28;20323;-63
2022/07/26 13:05:56;;;;;;;;;;;26.20;73.60;;;;;;5107931;28;19924;-62
2022/07/26 13:08:21;;;;;;;;;;;26.10;73.60;;;;;;5079064;28;19970;-70
2022/07/26 13:10:47;;;;;;;;;;;26.10;73.60;;;;;;5074352;28;20274;-66
2022/07/26 13:13:13;;;;;;;;;;;26.20;74.00;;;;;;5088570;28;19951;-63
2022/07/26 13:15:38;;;;;;;;;;;26.00;73.50;;;;;;5108993;28;19985;-62
2022/07/26 13:18:05;;;;;;;;;;;25.80;73.50;;;;;;5106240;28;19924;-63
2022/07/26 13:20:31;;;;;;;;;;;26.10;73.90;;;;;;5093943;28;20271;-63
2022/07/26 13:22:57;;;;;;;;;;;26.20;73.00;;;;;;5101206;28;20320;-63
2022/07/26 13:25:22;;;;;;;;;;;26.00;73.40;;;;;;5074326;28;20023;-62
2022/07/26 13:27:48;;;;;;;;;;;26.20;73.40;;;;;;5101362;28;20015;-62
2022/07/26 13:30:14;;;;;;;;;;;26.00;72.90;;;;;;5074029;28;20337;-63
2022/07/26 13:32:39;;;;;;;;;;;26.10;73.60;;;;;;5079112;28;19947;-63
2022/07/26 13:35:05;;;;;;;;;;;26.40;73.10;;;;;;5092538;28;19971;-66
2022/07/26 13:37:31;;;;;;;;;;;26.00;72.20;;;;;;5104177;28;19924;-67
2022/07/26 13:39:56;;;;;;;;;;;26.10;72.30;;;;;;5093001;28;19924;-66
2022/07/26 13:42:22;;;;;;;;;;;25.90;73.10;;;;;;5073383;28;19924;-62
2022/07/26 13:44:47;;;;;;;;;;;26.10;72.70;;;;;;5075921;28;20001;-62
2022/07/26 13:47:13;;;;;;;;;;;25.80;72.00;;;;;;5110943;28;19971;-62
2022/07/26 13:49:39;;;;;;;;;;;26.40;73.20;;;;;;5103578;28;19946;-62
2022/07/26 13:52:04;;;;;;;;;;;26.10;72.70;;;;;;5102078;28;19932;-62
2022/07/26 13:54:31;;;;;;;;;;;26.00;72.70;;;;;;5115815;28;19930;-66
2022/07/26 13:56:57;;;;;;;;;;;25.80;72.90;;;;;;5105952;28;19986;-63
2022/07/26 13:59:23;;;;;;;;;;;26.40;73.30;;;;;;5085216;28;19928;-67
2022/07/26 14:01:48;;;;;;;;;;;26.10;72.90;;;;;;5087002;28;19978;-66
2022/07/26 14:04:14;;;;;;;;;;;25.80;72.80;;;;;;5100697;28;20343;-65
2022/07/26 14:06:40;;;;;;;;;;;26.10;72.20;;;;;;5111196;28;20015;-63
2022/07/26 14:09:06;;;;;;;;;;;26.10;71.80;;;;;;5085242;28;19942;-63
2022/07/26 14:11:31;;;;;;;;;;;26.30;72.20;;;;;;5094175;28;20409;-62
2022/07/26 14:13:57;;;;;;;;;;;26.10;73.20;;;;;;5094498;28;19971;-63
2022/07/26 14:16:26;;;;;;;;;;;26.10;73.60;;;;;;5112521;28;19935;-62